createdAt,value
2022-11-18T00:02:13.149Z,26.33
2022-11-18T00:04:40.328Z,27.70
2022-11-18T00:07:07.469Z,29.23
2022-11-18T00:09:34.617Z,32.90
2022-11-18T00:12:20.280Z,33.53
2022-11-18T00:14:47.417Z,29.53
2022-11-18T00:17:14.544Z,30.43
2022-11-18T00:19:41.719Z,31.17
2022-11-18T00:22:10.968Z,32.47
2022-11-18T00:24:38.056Z,30.90
2022-11-18T00:27:05.233Z,30.30
2022-11-18T00:29:32.322Z,33.23
2022-11-18T00:31:59.573Z,30.00
2022-11-18T00:34:26.751Z,29.17
2022-11-18T00:36:53.885Z,29.13
2022-11-18T00:39:21.639Z,27.50
2022-11-18T00:42:07.753Z,33.93
2022-11-18T00:44:34.974Z,28.50
2022-11-18T00:47:02.096Z,32.77
2022-11-18T00:49:29.339Z,31.83
2022-11-18T00:51:56.500Z,32.80
2022-11-18T00:54:23.642Z,35.37
2022-11-18T00:56:50.856Z,37.80
2022-11-18T00:59:18.205Z,34.17
2022-11-18T01:01:45.705Z,33.47
2022-11-18T01:04:12.959Z,28.07
2022-11-18T01:06:40.075Z,29.73
2022-11-18T01:09:07.209Z,31.47
2022-11-18T01:11:52.957Z,29.37
2022-11-18T01:14:20.101Z,31.23
2022-11-18T01:16:51.300Z,29.93
2022-11-18T01:19:19.360Z,30.43
2022-11-18T01:21:46.805Z,35.90
2022-11-18T01:24:13.936Z,35.33
2022-11-18T01:26:41.062Z,32.50
2022-11-18T01:29:08.728Z,35.50
2022-11-18T01:31:35.863Z,31.20
2022-11-18T01:34:03.863Z,32.17
2022-11-18T01:36:31.122Z,33.87
2022-11-18T01:38:58.233Z,38.53
2022-11-18T01:41:25.767Z,41.97
2022-11-18T01:43:52.910Z,46.77
2022-11-18T01:46:20.308Z,41.27
2022-11-18T01:48:47.696Z,37.33
2022-11-18T01:51:16.826Z,34.10
2022-11-18T01:53:46.469Z,32.67
2022-11-18T01:56:15.290Z,35.23
2022-11-18T01:58:43.420Z,48.77
2022-11-18T02:01:10.594Z,37.70
2022-11-18T02:03:38.822Z,39.83
2022-11-18T02:06:06.072Z,33.03
2022-11-18T02:08:33.154Z,35.40
2022-11-18T02:11:00.265Z,50.70
2022-11-18T02:13:27.384Z,30.53
2022-11-18T02:15:58.748Z,31.13
2022-11-18T02:18:44.220Z,29.60
2022-11-18T02:21:14.166Z,31.47
2022-11-18T02:24:01.559Z,27.57
2022-11-18T02:26:52.894Z,26.17
2022-11-18T02:29:21.596Z,25.27
2022-11-18T02:31:54.876Z,29.33
2022-11-18T02:34:38.616Z,28.67
2022-11-18T02:37:08.475Z,30.87
2022-11-18T02:39:36.281Z,35.77
2022-11-18T02:42:04.663Z,40.97
2022-11-18T02:44:31.800Z,29.60
2022-11-18T02:47:00.293Z,37.93
2022-11-18T02:49:32.829Z,40.77
2022-11-18T02:51:59.952Z,37.73
2022-11-18T02:54:27.116Z,33.53
2022-11-18T02:56:54.236Z,33.07
2022-11-18T02:59:21.414Z,35.37
2022-11-18T03:01:48.626Z,28.80
2022-11-18T03:04:16.119Z,31.77
2022-11-18T03:06:49.573Z,30.33
2022-11-18T03:09:36.022Z,28.93
2022-11-18T03:12:21.499Z,30.10
2022-11-18T03:14:48.679Z,24.83
2022-11-18T03:17:31.175Z,30.67
2022-11-18T03:19:58.281Z,34.33
2022-11-18T03:22:37.640Z,34.73
2022-11-18T03:25:09.708Z,30.90
2022-11-18T03:27:45.625Z,31.20
2022-11-18T03:30:13.778Z,30.27
2022-11-18T03:32:42.118Z,28.97
2022-11-18T03:35:10.996Z,35.93
2022-11-18T03:37:38.166Z,30.17
2022-11-18T03:40:08.463Z,30.60
2022-11-18T03:42:36.415Z,27.07
2022-11-18T03:45:06.506Z,25.80
2022-11-18T03:47:34.845Z,24.47
2022-11-18T03:50:05.079Z,19.23
2022-11-18T03:52:32.705Z,20.30
2022-11-18T03:55:00.461Z,22.47
2022-11-18T03:57:42.042Z,18.17
2022-11-18T04:00:10.192Z,18.43
2022-11-18T04:02:37.286Z,24.60
2022-11-18T04:05:05.163Z,25.83
2022-11-18T04:07:37.269Z,24.57
2022-11-18T04:10:22.993Z,20.40
2022-11-18T04:13:06.456Z,20.03
2022-11-18T04:15:34.138Z,18.93
2022-11-18T04:18:01.252Z,14.27
2022-11-18T04:20:28.436Z,19.50
2022-11-18T04:22:55.616Z,14.60
2022-11-18T04:25:24.412Z,16.43
2022-11-18T04:27:51.703Z,15.50
2022-11-18T04:30:19.547Z,17.13
2022-11-18T04:32:46.841Z,13.57
2022-11-18T04:35:14.080Z,16.83
2022-11-18T04:37:41.238Z,15.60
2022-11-18T04:40:08.759Z,17.27
2022-11-18T04:42:35.883Z,18.47
2022-11-18T04:45:03.155Z,20.07
2022-11-18T04:47:30.274Z,27.83
2022-11-18T04:49:57.439Z,21.83
2022-11-18T04:52:24.632Z,19.73
2022-11-18T04:54:51.722Z,19.73
2022-11-18T04:57:18.894Z,24.80
2022-11-18T04:59:46.058Z,19.67
2022-11-18T05:02:13.664Z,18.20
2022-11-18T05:04:40.804Z,14.80
2022-11-18T05:07:08.047Z,17.47
2022-11-18T05:09:35.273Z,18.00
2022-11-18T05:12:20.886Z,14.80
2022-11-18T05:14:50.540Z,16.90
2022-11-18T05:17:18.087Z,14.73
2022-11-18T05:19:45.271Z,14.53
2022-11-18T05:22:12.364Z,17.23
2022-11-18T05:24:39.455Z,18.40
2022-11-18T05:27:06.692Z,20.90
2022-11-18T05:29:33.816Z,17.03
2022-11-18T05:32:00.960Z,15.40
2022-11-18T05:34:28.141Z,15.70
2022-11-18T05:36:55.244Z,33.80
2022-11-18T05:39:22.361Z,18.33
2022-11-18T05:42:08.093Z,40.40
2022-11-18T05:44:35.197Z,18.30
2022-11-18T05:47:02.350Z,23.27
2022-11-18T05:49:29.536Z,21.10
2022-11-18T05:51:56.667Z,14.73
2022-11-18T05:54:23.816Z,22.50
2022-11-18T05:56:51.033Z,17.63
2022-11-18T05:59:18.415Z,18.60
2022-11-18T06:01:45.681Z,14.67
2022-11-18T06:04:24.175Z,14.73
2022-11-18T06:06:51.433Z,15.07
2022-11-18T06:09:19.323Z,17.67
2022-11-18T06:11:47.594Z,16.33
2022-11-18T06:14:18.406Z,17.90
2022-11-18T06:16:46.682Z,15.50
2022-11-18T06:19:13.799Z,14.60
2022-11-18T06:21:40.935Z,25.30
2022-11-18T06:24:09.969Z,20.10
2022-11-18T06:26:38.001Z,24.10
2022-11-18T06:29:05.484Z,20.77
2022-11-18T06:31:32.587Z,20.13
2022-11-18T06:33:59.746Z,18.67
2022-11-18T06:36:26.857Z,16.97
2022-11-18T06:38:54.045Z,16.63
2022-11-18T06:41:21.194Z,18.33
2022-11-18T06:43:49.003Z,16.43
2022-11-18T06:46:35.576Z,18.67
2022-11-18T06:49:02.967Z,13.80
2022-11-18T06:51:30.103Z,19.67
2022-11-18T06:53:57.222Z,24.07
2022-11-18T06:56:24.370Z,24.00
2022-11-18T06:58:55.044Z,24.57
2022-11-18T07:01:26.100Z,22.83
2022-11-18T07:03:53.324Z,46.57
2022-11-18T07:06:23.861Z,24.63
2022-11-18T07:08:51.093Z,30.47
2022-11-18T07:11:18.904Z,25.57
2022-11-18T07:13:46.204Z,24.20
2022-11-18T07:16:14.537Z,25.60
2022-11-18T07:18:41.884Z,21.73
2022-11-18T07:21:13.237Z,25.40
2022-11-18T07:23:40.424Z,22.20
2022-11-18T07:26:07.620Z,23.93
2022-11-18T07:28:34.802Z,20.13
2022-11-18T07:31:20.723Z,21.97
2022-11-18T07:33:48.028Z,16.83
2022-11-18T07:36:16.144Z,17.03
2022-11-18T07:38:43.387Z,23.00
2022-11-18T07:41:13.683Z,20.40
2022-11-18T07:43:40.946Z,15.03
2022-11-18T07:46:27.676Z,15.30
2022-11-18T07:48:56.274Z,18.27
2022-11-18T07:51:24.160Z,16.97
2022-11-18T07:53:51.283Z,16.47
2022-11-18T07:56:18.467Z,22.60
2022-11-18T07:58:45.654Z,19.33
2022-11-18T08:01:16.680Z,22.63
2022-11-18T08:03:44.182Z,41.10
2022-11-18T08:06:11.775Z,30.17
2022-11-18T08:08:39.122Z,21.83
2022-11-18T08:11:09.899Z,25.37
2022-11-18T08:13:37.100Z,23.40
2022-11-18T08:16:04.411Z,19.77
2022-11-18T08:18:32.083Z,16.80
2022-11-18T08:21:05.501Z,22.20
2022-11-18T08:23:37.433Z,38.57
2022-11-18T08:26:08.531Z,20.87
2022-11-18T08:28:35.839Z,20.20
2022-11-18T08:31:09.737Z,21.23
2022-11-18T08:33:36.885Z,24.80
2022-11-18T08:36:22.995Z,17.87
2022-11-18T08:38:50.220Z,21.20
2022-11-18T08:41:18.146Z,14.87
2022-11-18T08:43:45.325Z,19.90
2022-11-18T08:46:12.490Z,15.67
2022-11-18T08:48:39.588Z,60.07
2022-11-18T08:51:06.797Z,21.07
2022-11-18T08:53:33.959Z,22.60
2022-11-18T08:56:01.303Z,37.83
2022-11-18T08:58:28.582Z,32.53
2022-11-18T09:00:55.851Z,65.90
2022-11-18T09:03:23.102Z,25.40
2022-11-18T09:05:50.239Z,18.43
2022-11-18T09:08:17.433Z,19.60
2022-11-18T09:10:44.578Z,28.77
2022-11-18T09:13:42.594Z,21.40
2022-11-18T09:15:59.299Z,49.83
2022-11-18T09:18:26.613Z,36.00
2022-11-18T09:21:00.492Z,29.27
2022-11-18T09:23:27.722Z,34.73
2022-11-18T09:25:58.739Z,28.80
2022-11-18T09:28:25.912Z,36.90
2022-11-18T09:30:53.053Z,27.30
2022-11-18T09:33:20.669Z,28.97
2022-11-18T09:35:48.002Z,18.13
2022-11-18T09:38:15.266Z,12.40
2022-11-18T09:40:49.993Z,15.53
2022-11-18T09:43:29.063Z,18.00
2022-11-18T09:45:57.647Z,12.33
2022-11-18T09:48:44.747Z,11.47
2022-11-18T09:51:12.137Z,14.13
2022-11-18T09:53:40.249Z,15.63
2022-11-18T09:56:09.708Z,12.53
2022-11-18T09:58:36.850Z,15.57
2022-11-18T10:01:04.062Z,13.77
2022-11-18T10:03:32.184Z,14.93
2022-11-18T10:06:07.082Z,18.77
2022-11-18T10:08:42.119Z,22.03
2022-11-18T10:11:18.292Z,19.43
2022-11-18T10:13:48.242Z,16.37
2022-11-18T10:16:24.303Z,14.20
2022-11-18T10:19:02.024Z,13.53
2022-11-18T10:21:35.212Z,19.53
2022-11-18T10:24:09.221Z,19.63
2022-11-18T10:26:37.320Z,20.23
2022-11-18T10:29:07.479Z,17.43
2022-11-18T10:31:36.356Z,15.40
2022-11-18T10:34:03.799Z,13.97
2022-11-18T10:36:32.343Z,16.23
2022-11-18T10:39:06.554Z,19.27
2022-11-18T10:41:38.783Z,20.90
2022-11-18T10:44:11.912Z,20.27
2022-11-18T10:46:39.432Z,20.43
2022-11-18T10:49:09.714Z,20.13
2022-11-18T10:51:39.450Z,32.87
2022-11-18T10:54:09.730Z,31.77
2022-11-18T10:56:46.535Z,27.37
2022-11-18T10:59:22.556Z,23.67
2022-11-18T11:02:10.016Z,28.33
2022-11-18T11:04:37.325Z,24.63
2022-11-18T11:07:23.281Z,24.23
2022-11-18T11:10:13.443Z,26.30
2022-11-18T11:12:47.239Z,23.50
2022-11-18T11:15:15.318Z,18.13
2022-11-18T11:18:20.062Z,19.67
2022-11-18T11:20:47.180Z,21.53
2022-11-18T11:23:17.834Z,27.80
2022-11-18T11:28:53.898Z,17.43
2022-11-18T11:31:24.080Z,24.37
2022-11-18T11:34:00.102Z,22.90
2022-11-18T11:36:45.343Z,32.43
2022-11-18T11:39:31.979Z,18.57
2022-11-18T11:42:16.062Z,15.03
2022-11-18T11:45:12.565Z,11.57
2022-11-18T11:47:47.653Z,14.97
2022-11-18T11:50:18.299Z,10.80
2022-11-18T11:53:04.364Z,10.60
2022-11-18T11:55:31.496Z,12.53
2022-11-18T11:58:17.312Z,12.93
2022-11-18T12:00:46.219Z,30.17
2022-11-18T12:03:25.573Z,19.90
2022-11-18T12:05:52.702Z,20.27
2022-11-18T12:08:22.663Z,14.33
2022-11-18T12:10:54.643Z,13.53
2022-11-18T12:13:24.565Z,8.73
2022-11-18T12:16:13.763Z,20.80
2022-11-18T12:18:43.920Z,17.03
2022-11-18T12:21:35.057Z,23.50
2022-11-18T12:24:23.053Z,52.40
2022-11-18T12:26:50.338Z,55.67
2022-11-18T12:29:20.804Z,43.87
2022-11-18T12:31:49.273Z,28.50
2022-11-18T12:34:19.980Z,43.73
2022-11-18T12:36:47.145Z,116.70
2022-11-18T12:39:26.335Z,86.97
2022-11-18T12:42:12.315Z,58.40
2022-11-18T12:44:39.545Z,52.40
2022-11-18T12:47:07.289Z,19.60
2022-11-18T12:49:34.396Z,15.43
2022-11-18T12:52:04.988Z,54.07
2022-11-18T12:54:45.007Z,28.37
2022-11-18T12:57:18.274Z,27.98
2022-11-18T12:59:45.382Z,17.57
2022-11-18T13:02:12.472Z,38.23
2022-11-18T13:04:45.004Z,40.13
2022-11-18T13:07:33.006Z,30.20
2022-11-18T13:10:00.241Z,29.80
2022-11-18T13:12:27.774Z,31.80
2022-11-18T13:15:13.438Z,40.63
2022-11-18T13:17:54.662Z,26.93
2022-11-18T13:20:21.881Z,20.07
2022-11-18T13:23:14.733Z,46.33
2022-11-18T13:25:42.672Z,41.60
2022-11-18T13:28:39.159Z,26.67
2022-11-18T13:31:08.149Z,26.83
2022-11-18T13:33:38.380Z,21.50
2022-11-18T13:36:16.257Z,26.83
2022-11-18T13:38:45.097Z,25.00
2022-11-18T13:41:22.630Z,31.97
2022-11-18T13:43:53.845Z,24.87
2022-11-18T13:46:21.283Z,25.17
2022-11-18T13:48:57.853Z,32.60
2022-11-18T13:51:24.980Z,23.90
2022-11-18T13:53:52.070Z,29.93
2022-11-18T13:56:20.522Z,24.47
2022-11-18T14:01:37.807Z,29.53
2022-11-18T14:04:09.675Z,27.00
2022-11-18T14:06:37.570Z,25.70
2022-11-18T14:09:25.018Z,30.00
2022-11-18T14:12:00.058Z,36.87
2022-11-18T14:14:30.264Z,30.80
2022-11-18T14:17:04.076Z,30.67
2022-11-18T14:19:31.606Z,26.23
2022-11-18T14:22:13.235Z,28.37
2022-11-18T14:24:40.680Z,29.63
2022-11-18T14:27:26.557Z,30.07
2022-11-18T14:29:53.665Z,32.43
2022-11-18T14:32:21.543Z,29.67
2022-11-18T14:34:58.054Z,32.33
2022-11-18T14:37:25.193Z,36.40
2022-11-18T14:39:56.184Z,61.17
2022-11-18T14:42:23.884Z,43.83
2022-11-18T14:44:51.140Z,70.83
2022-11-18T14:47:25.802Z,71.47
2022-11-18T14:49:53.006Z,58.80
2022-11-18T14:52:20.104Z,62.00
2022-11-18T14:54:47.577Z,52.80
2022-11-18T14:57:15.487Z,53.30
2022-11-18T14:59:42.630Z,46.93
2022-11-18T15:02:13.856Z,43.63
2022-11-18T15:04:41.170Z,48.60
2022-11-18T15:07:10.105Z,71.27
2022-11-18T15:09:37.351Z,48.73
2022-11-18T15:12:04.793Z,56.77
2022-11-18T15:14:31.943Z,95.73
2022-11-18T15:16:59.077Z,66.57
2022-11-18T15:19:26.745Z,54.17
2022-11-18T15:21:53.846Z,62.37
2022-11-18T15:24:21.217Z,57.37
2022-11-18T15:26:48.535Z,55.67
2022-11-18T15:29:19.326Z,47.83
2022-11-18T15:31:46.889Z,58.00
2022-11-18T15:34:14.304Z,39.07
2022-11-18T15:36:41.517Z,41.07
2022-11-18T15:39:09.663Z,45.00
2022-11-18T15:41:38.103Z,46.17
2022-11-18T15:44:05.350Z,76.07
2022-11-18T15:46:33.738Z,71.77
2022-11-18T15:49:01.206Z,54.57
2022-11-18T15:51:29.337Z,87.73
2022-11-18T15:53:56.588Z,54.07
2022-11-18T15:56:23.740Z,53.90
2022-11-18T15:58:56.762Z,50.93
2022-11-18T16:01:24.690Z,92.07
2022-11-18T16:03:51.909Z,88.50
2022-11-18T16:06:19.060Z,75.83
2022-11-18T16:08:46.240Z,84.13
2022-11-18T16:11:32.906Z,98.40
2022-11-18T16:14:06.118Z,67.97
2022-11-18T16:16:33.369Z,200.47
2022-11-18T16:19:04.367Z,83.80
2022-11-18T16:21:32.842Z,56.70
2022-11-18T16:24:00.369Z,65.70
2022-11-18T16:26:27.844Z,59.63
2022-11-18T16:28:54.971Z,73.20
2022-11-18T16:31:40.644Z,64.23
2022-11-18T16:34:08.742Z,59.23
2022-11-18T16:36:39.700Z,107.90
2022-11-18T16:39:17.014Z,173.33
2022-11-18T16:41:44.527Z,69.67
2022-11-18T16:44:12.700Z,61.37
2022-11-18T16:46:40.635Z,58.67
2022-11-18T16:49:07.911Z,57.80
2022-11-18T16:51:35.231Z,49.77
2022-11-18T16:54:06.965Z,44.73
2022-11-18T16:56:34.790Z,46.63
2022-11-18T16:59:05.548Z,49.03
2022-11-18T17:01:32.866Z,61.53
2022-11-18T17:04:03.359Z,36.83
2022-11-18T17:06:31.458Z,48.63
2022-11-18T17:08:59.068Z,40.07
2022-11-18T17:11:26.160Z,43.47
2022-11-18T17:13:57.686Z,39.43
2022-11-18T17:16:25.526Z,43.80
2022-11-18T17:18:58.918Z,56.77
2022-11-18T17:21:26.559Z,45.37
2022-11-18T17:23:53.818Z,35.57
2022-11-18T17:26:22.335Z,41.67
2022-11-18T17:28:49.489Z,37.30
2022-11-18T17:31:17.558Z,55.07
2022-11-18T17:33:44.820Z,63.70
2022-11-18T17:36:12.788Z,63.43
2022-11-18T17:38:40.795Z,69.03
2022-11-18T17:41:08.652Z,44.20
2022-11-18T17:43:35.931Z,51.30
2022-11-18T17:46:03.782Z,64.90
2022-11-18T17:48:31.106Z,39.67
2022-11-18T17:51:07.495Z,49.83
2022-11-18T17:53:34.629Z,51.57
2022-11-18T17:56:04.036Z,53.53
2022-11-18T17:58:31.811Z,59.33
2022-11-18T18:01:06.740Z,65.70
2022-11-18T18:03:33.935Z,81.10
2022-11-18T18:06:04.365Z,53.43
2022-11-18T18:08:32.077Z,52.37
2022-11-18T18:11:05.936Z,53.63
2022-11-18T18:13:51.814Z,56.83
2022-11-18T18:16:19.059Z,42.73
2022-11-18T18:18:46.177Z,49.70
2022-11-18T18:21:13.338Z,47.47
2022-11-18T18:23:40.492Z,37.33
2022-11-18T18:26:08.198Z,45.63
2022-11-18T18:28:35.369Z,61.00
2022-11-18T18:31:03.915Z,51.13
2022-11-18T18:33:31.203Z,44.13
2022-11-18T18:35:58.899Z,53.77
2022-11-18T18:38:26.156Z,46.37
2022-11-18T18:40:53.413Z,46.23
2022-11-18T18:43:20.951Z,57.00
2022-11-18T18:46:06.943Z,48.43
2022-11-18T18:48:34.138Z,39.53
2022-11-18T18:51:05.209Z,51.33
2022-11-18T18:53:33.363Z,39.77
2022-11-18T18:56:00.586Z,40.37
2022-11-18T18:58:28.002Z,37.47
2022-11-18T19:00:58.266Z,59.10
2022-11-18T19:03:25.660Z,50.90
2022-11-18T19:06:27.266Z,42.20
2022-11-18T19:08:39.974Z,35.47
2022-11-18T19:11:07.234Z,36.40
2022-11-18T19:13:34.410Z,141.73
2022-11-18T19:16:07.555Z,67.40
2022-11-18T19:18:35.543Z,177.40
2022-11-18T19:21:02.710Z,213.10
2022-11-18T19:23:29.959Z,278.33
2022-11-18T19:26:00.726Z,204.93
2022-11-18T19:28:27.949Z,191.17
2022-11-18T19:30:55.092Z,139.07
2022-11-18T19:33:22.297Z,253.67
2022-11-18T19:35:49.433Z,219.87
2022-11-18T19:38:16.602Z,295.53
2022-11-18T19:40:44.174Z,100.00
2022-11-18T19:43:11.662Z,141.23
2022-11-18T19:45:38.824Z,207.37
2022-11-18T19:48:06.149Z,82.20
2022-11-18T19:50:33.323Z,53.30
2022-11-18T19:53:20.419Z,182.63
2022-11-18T19:55:53.510Z,126.33
2022-11-18T19:58:20.669Z,170.83
2022-11-18T20:00:47.768Z,167.73
2022-11-18T20:03:14.943Z,162.40
2022-11-18T20:05:54.337Z,143.93
2022-11-18T20:08:24.919Z,109.80
2022-11-18T20:10:52.327Z,302.80
2022-11-18T20:13:19.519Z,120.83
2022-11-18T20:15:46.887Z,130.70
2022-11-18T20:18:13.983Z,129.10
2022-11-18T20:20:41.149Z,98.73
2022-11-18T20:23:08.366Z,130.00
2022-11-18T20:25:36.186Z,147.30
2022-11-18T20:28:03.821Z,70.20
2022-11-18T20:30:30.968Z,44.03
2022-11-18T20:32:59.874Z,52.23
2022-11-18T20:35:27.084Z,46.27
2022-11-18T20:37:54.271Z,48.97
2022-11-18T20:40:21.419Z,47.10
2022-11-18T20:43:07.221Z,50.63
2022-11-18T20:45:34.340Z,48.40
2022-11-18T20:48:01.983Z,44.37
2022-11-18T20:50:29.136Z,36.83
2022-11-18T20:52:56.361Z,53.10
2022-11-18T20:55:23.588Z,52.87
2022-11-18T20:57:50.751Z,45.13
2022-11-18T21:00:18.139Z,43.37
2022-11-18T21:02:45.280Z,57.40
2022-11-18T21:05:12.471Z,46.87
2022-11-18T21:07:39.716Z,34.37
2022-11-18T21:10:08.087Z,44.53
2022-11-18T21:12:35.284Z,44.40
2022-11-18T21:15:02.443Z,40.27
2022-11-18T21:17:29.592Z,47.60
2022-11-18T21:20:16.729Z,42.43
2022-11-18T21:22:43.895Z,38.27
2022-11-18T21:25:11.014Z,44.53
2022-11-18T21:27:38.151Z,61.23
2022-11-18T21:30:05.494Z,33.73
2022-11-18T21:32:32.637Z,33.37
2022-11-18T21:34:59.812Z,33.50
2022-11-18T21:37:27.015Z,32.80
2022-11-18T21:39:54.157Z,48.73
2022-11-18T21:42:21.298Z,37.47
2022-11-18T21:44:49.304Z,39.73
2022-11-18T21:47:16.440Z,38.73
2022-11-18T21:49:43.578Z,35.50
2022-11-18T21:52:10.692Z,30.53
2022-11-18T21:54:37.940Z,31.10
2022-11-18T21:57:05.141Z,48.07
2022-11-18T21:59:32.251Z,36.10
2022-11-18T22:01:59.413Z,25.07
2022-11-18T22:04:45.178Z,28.00
2022-11-18T22:07:12.290Z,46.20
2022-11-18T22:09:39.413Z,54.90
2022-11-18T22:12:07.586Z,65.40
2022-11-18T22:14:34.990Z,48.10
2022-11-18T22:17:02.116Z,56.60
2022-11-18T22:19:29.479Z,56.27
2022-11-18T22:21:56.594Z,62.50
2022-11-18T22:24:23.738Z,57.97
2022-11-18T22:26:50.903Z,58.80
2022-11-18T22:29:18.541Z,37.80
2022-11-18T22:31:45.855Z,39.10
2022-11-18T22:34:13.024Z,43.60
2022-11-18T22:36:40.181Z,39.97
2022-11-18T22:39:07.340Z,41.70
2022-11-18T22:41:53.266Z,39.20
2022-11-18T22:44:20.444Z,39.53
2022-11-18T22:46:47.665Z,38.53
2022-11-18T22:49:15.053Z,34.77
2022-11-18T22:51:42.235Z,38.53
2022-11-18T22:54:37.237Z,37.73
2022-11-18T22:56:56.731Z,33.37
2022-11-18T22:59:24.164Z,30.53
2022-11-18T23:01:51.802Z,37.27
2022-11-18T23:04:18.980Z,57.60
2022-11-18T23:06:46.129Z,48.77
2022-11-18T23:09:13.277Z,39.80
2022-11-18T23:12:09.844Z,45.67
2022-11-18T23:14:37.236Z,72.17
2022-11-18T23:17:05.047Z,69.53
2022-11-18T23:19:32.254Z,65.70
2022-11-18T23:21:59.411Z,67.20
2022-11-18T23:24:26.574Z,55.17
2022-11-18T23:26:53.737Z,40.43
2022-11-18T23:29:21.254Z,32.00
2022-11-18T23:31:48.668Z,40.33
2022-11-18T23:34:16.216Z,43.27
2022-11-18T23:36:43.423Z,34.73
2022-11-18T23:39:10.838Z,33.03
2022-11-18T23:41:38.095Z,30.93
2022-11-18T23:44:05.499Z,32.67
2022-11-18T23:46:32.724Z,38.37
2022-11-18T23:49:00.011Z,32.00
2022-11-18T23:51:27.209Z,28.77
2022-11-18T23:53:55.059Z,27.53
2022-11-18T23:56:23.073Z,35.23
2022-11-18T23:58:50.842Z,29.50
